Nearby METAR Reports

 

KGSP - Greer/Spartansbg, South Carolina, USA
Distance from station: E 4mi, 6km
Updated: Tue, 30-Nov-2021 5:53am EST
Clear
Clear
 Wind from calm
Wind: Calm
Temperature: 28°F , -2°C
Dew Point: 21°F , -6°C
Humidity: 74%
Barometer: 30.12 inHg , 1020 hPa
Clouds: Clear
Visibility: 10 miles , 16 km
2021/11/30 10:53 KGSP 301053Z AUTO 00000KT 10SM CLR M02/M06 A3012 RMK AO2 SLP204 T10171061
KGMU - Greenville, South Carolina, USA
Distance from station: SW 5mi, 8km
Updated: Tue, 30-Nov-2021 5:53am EST
Clear
Clear
 Wind from calm
Wind: Calm
Temperature: 36°F , 2°C
Dew Point: 21°F , -6°C
Humidity: 56%
Barometer: 30.12 inHg , 1020 hPa
Clouds: Clear
Visibility: 10 miles , 16 km
2021/11/30 10:53 KGMU 301053Z AUTO 00000KT 10SM CLR 02/M06 A3012 RMK AO2 SLP206 T00221056
 
KGYH - Greenville, South Carolina, USA
Distance from station: SSW 11mi, 18km
Updated: Tue, 30-Nov-2021 6:15am EST
Clear
Clear
 Wind from WSW
Wind: WSW 8 mph , 13 km/h
Temperature: 30°F , -1°C
Wind Chill: 22°F , -6°C
Dew Point: 23°F , -5°C
Humidity: 75%
Barometer: 30.12 inHg , 1020 hPa
Clouds: Clear
Visibility: 10 miles , 16 km
2021/11/30 11:15 KGYH 301115Z AUTO 24007KT 10SM CLR M01/M05 A3012 RMK A02 T10091048
KSPA - Spartanburg, South Carolina, USA
Distance from station: E 20mi, 32km
Updated: Tue, 30-Nov-2021 6:15am EST
Clear
Clear
 Wind from calm
Wind: Calm
Temperature: 28°F , -2°C
Dew Point: 23°F , -5°C
Humidity: 80%
Barometer: 30.13 inHg , 1020.3 hPa
Clouds: Clear
Visibility: 10 miles , 16 km
2021/11/30 11:15 KSPA 301115Z AUTO 00000KT 10SM CLR M02/M05 A3013 RMK AO2
 
KLQK - Pickens, South Carolina, USA
Distance from station: WSW 24mi, 39km
Updated: Tue, 30-Nov-2021 6:15am EST
Clear
Clear
 Wind from calm
Wind: Calm
Temperature: 25°F , -4°C
Dew Point: 25°F , -4°C
Humidity: 100%
Barometer: 30.11 inHg , 1019.6 hPa
Clouds: Clear
Visibility: 10 miles , 16 km
2021/11/30 11:15 KLQK 301115Z AUTO 00000KT 10SM CLR M04/M04 A3011 RMK AO2 T10361042
KLUX - Laurens, South Carolina, USA
Distance from station: SE 33mi, 54km
Updated: Tue, 30-Nov-2021 6:15am EST
Clear
Clear
 Wind from SW
Wind: SW 7 mph , 11 km/h
Temperature: 32°F , 0°C
Wind Chill: 25°F , -4°C
Dew Point: 25°F , -4°C
Humidity: 75%
Barometer: 30.15 inHg , 1021 hPa
Clouds: Clear
Visibility: 10 miles , 16 km
2021/11/30 11:15 KLUX 301115Z AUTO 22006KT 10SM CLR 00/M04 A3015 RMK AO2
 
KAND - Anderson, South Carolina, USA
Distance from station: SW 37mi, 59km
Updated: Tue, 30-Nov-2021 5:56am EST
Clear
Clear
 Wind from calm
Wind: Calm
Temperature: 30°F , -1°C
Dew Point: 27°F , -3°C
Humidity: 86%
Barometer: 30.14 inHg , 1020.7 hPa
Clouds: Clear
Visibility: 10 miles , 16 km
2021/11/30 10:56 KAND 301056Z AUTO 00000KT 10SM CLR M01/M03 A3014 RMK AO2 SLP208 T10111033
KCEU - Clemson, South Carolina, USA
Distance from station: WSW 37mi, 60km
Updated: Tue, 30-Nov-2021 5:54am EST
Clear
Clear
 Wind from calm
Wind: Calm
Temperature: 34°F , 1°C
Dew Point: 32°F , 0°C
Humidity: 93%
Barometer: 30.13 inHg , 1020.3 hPa
Clouds: Clear
Visibility: 10 miles , 16 km
2021/11/30 10:54 KCEU 301054Z AUTO 00000KT 10SM CLR 01/00 A3013 RMK AO2 SLP205 T00060000
 
KAVL - Asheville, North Carolina, USA
Distance from station: NNW 40mi, 64km
Updated: Tue, 30-Nov-2021 5:54am EST
Clear
Clear
 Wind from N
Wind: N 8 mph , 13 km/h
Temperature: 28°F , -2°C
Wind Chill: 20°F , -7°C
Dew Point: 19°F , -7°C
Humidity: 69%
Barometer: 30.10 inHg , 1019.3 hPa
Clouds: Clear
Visibility: 10 miles , 16 km
2021/11/30 10:54 KAVL 301054Z AUTO 36007KT 10SM CLR M02/M07 A3010 RMK AO2 SLP204 T10221072
KFQD - Rutherfordton, North Carolina, USA
Distance from station: NNE 41mi, 66km
Updated: Tue, 30-Nov-2021 6:15am EST
Clear
Clear
 Wind from calm
Wind: Calm
Temperature: 27°F , -3°C
Dew Point: 23°F , -5°C
Humidity: 86%
Barometer: 30.12 inHg , 1020 hPa
Clouds: Clear
Visibility: 10 miles , 16 km
2021/11/30 11:15 KFQD 301115Z AUTO 00000KT 10SM CLR M03/M05 A3012 RMK AO2
 
KGRD - Greenwood, South Carolina, USA
Distance from station: S 45mi, 73km
Updated: Tue, 30-Nov-2021 5:56am EST
Clear
Clear
 Wind from calm
Wind: Calm
Temperature: 28°F , -2°C
Dew Point: 25°F , -4°C
Humidity: 86%
Barometer: 30.16 inHg , 1021.3 hPa
Clouds: Clear
Visibility: 10 miles , 16 km
2021/11/30 10:56 KGRD 301056Z AUTO 00000KT 10SM CLR M02/M04 A3016 RMK AO2 SLP217 T10221044
KEHO - Shelby Muni, North Carolina, USA
Distance from station: ENE 46mi, 74km
Updated: Tue, 30-Nov-2021 6:15am EST
Clear
Clear
 Wind from calm
Wind: Calm
Temperature: 27°F , -3°C
Dew Point: 23°F , -5°C
Humidity: 86%
Barometer: 30.12 inHg , 1020 hPa
Clouds: Clear
Visibility: 10 miles , 16 km
2021/11/30 11:15 KEHO 301115Z AUTO 00000KT 10SM CLR M03/M05 A3012 RMK AO2 T10341055